sensor_id;sensor_type;location;lat;lon;timestamp;pressure;altitude;pressure_sealevel;temperature;humidity
51829;BME280;37881;48.024;8.774;2023-05-28T00:00:47;94040.31;;;11.17;100.00
51829;BME280;37881;48.024;8.774;2023-05-28T00:03:15;94034.28;;;11.26;100.00
51829;BME280;37881;48.024;8.774;2023-05-28T00:05:45;94038.16;;;11.28;100.00
51829;BME280;37881;48.024;8.774;2023-05-28T00:08:11;94028.00;;;11.02;100.00
51829;BME280;37881;48.024;8.774;2023-05-28T00:10:41;94026.78;;;11.03;100.00
51829;BME280;37881;48.024;8.774;2023-05-28T00:13:08;94028.25;;;11.11;100.00
51829;BME280;37881;48.024;8.774;2023-05-28T00:15:35;94022.53;;;10.98;100.00
51829;BME280;37881;48.024;8.774;2023-05-28T00:18:04;94021.56;;;11.12;100.00
51829;BME280;37881;48.024;8.774;2023-05-28T00:20:31;94015.44;;;11.00;100.00
51829;BME280;37881;48.024;8.774;2023-05-28T00:22:58;94015.06;;;10.98;100.00
51829;BME280;37881;48.024;8.774;2023-05-28T00:25:25;94012.75;;;10.97;100.00
51829;BME280;37881;48.024;8.774;2023-05-28T00:27:52;94010.78;;;10.97;100.00
51829;BME280;37881;48.024;8.774;2023-05-28T00:30:18;94004.97;;;10.92;100.00
51829;BME280;37881;48.024;8.774;2023-05-28T00:32:45;93999.97;;;10.87;100.00
51829;BME280;37881;48.024;8.774;2023-05-28T00:35:12;94005.41;;;10.90;100.00
51829;BME280;37881;48.024;8.774;2023-05-28T00:37:39;93998.47;;;10.82;100.00
51829;BME280;37881;48.024;8.774;2023-05-28T00:40:06;93997.69;;;10.82;100.00
51829;BME280;37881;48.024;8.774;2023-05-28T00:42:34;93992.19;;;10.82;100.00
51829;BME280;37881;48.024;8.774;2023-05-28T00:45:02;93993.28;;;10.88;100.00
51829;BME280;37881;48.024;8.774;2023-05-28T00:47:29;93988.69;;;10.81;100.00
51829;BME280;37881;48.024;8.774;2023-05-28T00:49:56;93985.72;;;10.68;100.00
51829;BME280;37881;48.024;8.774;2023-05-28T00:52:23;93994.84;;;10.62;100.00
51829;BME280;37881;48.024;8.774;2023-05-28T00:54:50;93995.13;;;10.40;100.00
51829;BME280;37881;48.024;8.774;2023-05-28T00:57:17;93991.25;;;10.37;100.00
51829;BME280;37881;48.024;8.774;2023-05-28T00:59:48;93984.50;;;10.42;100.00
51829;BME280;37881;48.024;8.774;2023-05-28T01:02:15;93988.81;;;10.43;100.00
51829;BME280;37881;48.024;8.774;2023-05-28T01:04:42;93989.72;;;10.36;100.00
51829;BME280;37881;48.024;8.774;2023-05-28T01:07:09;93977.81;;;10.47;100.00
51829;BME280;37881;48.024;8.774;2023-05-28T01:09:36;93991.25;;;10.37;100.00
51829;BME280;37881;48.024;8.774;2023-05-28T01:12:03;93987.63;;;10.44;100.00
51829;BME280;37881;48.024;8.774;2023-05-28T01:14:32;93985.06;;;10.30;100.00
51829;BME280;37881;48.024;8.774;2023-05-28T01:16:59;93987.78;;;10.33;100.00
51829;BME280;37881;48.024;8.774;2023-05-28T01:19:25;93974.16;;;10.26;100.00
51829;BME280;37881;48.024;8.774;2023-05-28T01:22:04;93981.69;;;10.18;100.00
51829;BME280;37881;48.024;8.774;2023-05-28T01:24:32;93975.34;;;10.22;100.00
51829;BME280;37881;48.024;8.774;2023-05-28T01:26:59;93974.22;;;10.19;100.00
51829;BME280;37881;48.024;8.774;2023-05-28T01:29:28;93982.50;;;10.15;100.00
51829;BME280;37881;48.024;8.774;2023-05-28T01:31:55;93970.41;;;10.09;100.00
51829;BME280;37881;48.024;8.774;2023-05-28T01:34:21;93966.50;;;10.10;100.00
51829;BME280;37881;48.024;8.774;2023-05-28T01:37:06;93964.16;;;10.09;100.00
51829;BME280;37881;48.024;8.774;2023-05-28T01:39:40;93963.44;;;10.05;100.00
51829;BME280;37881;48.024;8.774;2023-05-28T01:42:08;93963.56;;;9.94;100.00
51829;BME280;37881;48.024;8.774;2023-05-28T01:44:35;93958.50;;;9.92;100.00
51829;BME280;37881;48.024;8.774;2023-05-28T01:47:02;93968.09;;;9.73;100.00
51829;BME280;37881;48.024;8.774;2023-05-28T01:49:29;93968.91;;;9.74;100.00
51829;BME280;37881;48.024;8.774;2023-05-28T01:51:56;93967.50;;;9.58;100.00
51829;BME280;37881;48.024;8.774;2023-05-28T01:54:23;93970.66;;;9.53;100.00
51829;BME280;37881;48.024;8.774;2023-05-28T01:56:50;93972.13;;;9.62;100.00
51829;BME280;37881;48.024;8.774;2023-05-28T01:59:17;93969.38;;;9.65;100.00
51829;BME280;37881;48.024;8.774;2023-05-28T02:01:43;93963.47;;;9.67;100.00
51829;BME280;37881;48.024;8.774;2023-05-28T02:04:10;93967.03;;;9.64;100.00
51829;BME280;37881;48.024;8.774;2023-05-28T02:06:37;93970.19;;;9.62;100.00
51829;BME280;37881;48.024;8.774;2023-05-28T02:09:04;93967.03;;;9.64;100.00
51829;BME280;37881;48.024;8.774;2023-05-28T02:11:31;93965.56;;;9.55;100.00
51829;BME280;37881;48.024;8.774;2023-05-28T02:13:57;93978.06;;;9.60;100.00
51829;BME280;37881;48.024;8.774;2023-05-28T02:16:24;93969.41;;;9.62;100.00
51829;BME280;37881;48.024;8.774;2023-05-28T02:18:51;93967.56;;;9.51;100.00
51829;BME280;37881;48.024;8.774;2023-05-28T02:21:19;93966.56;;;9.34;100.00
51829;BME280;37881;48.024;8.774;2023-05-28T02:23:47;93962.63;;;9.35;100.00
51829;BME280;37881;48.024;8.774;2023-05-28T02:26:15;93962.97;;;8.99;100.00
51829;BME280;37881;48.024;8.774;2023-05-28T02:28:42;93962.75;;;9.21;100.00
51829;BME280;37881;48.024;8.774;2023-05-28T02:31:12;93962.34;;;9.26;100.00
51829;BME280;37881;48.024;8.774;2023-05-28T02:33:40;93955.63;;;9.31;100.00
51829;BME280;37881;48.024;8.774;2023-05-28T02:36:10;93956.78;;;9.33;100.00
51829;BME280;37881;48.024;8.774;2023-05-28T02:38:41;93953.25;;;9.33;100.00
51829;BME280;37881;48.024;8.774;2023-05-28T02:41:09;93954.53;;;9.25;100.00
51829;BME280;37881;48.024;8.774;2023-05-28T02:43:36;93956.88;;;9.23;100.00
51829;BME280;37881;48.024;8.774;2023-05-28T02:46:03;93953.34;;;9.26;100.00
51829;BME280;37881;48.024;8.774;2023-05-28T02:48:30;93949.03;;;9.25;100.00
51829;BME280;37881;48.024;8.774;2023-05-28T02:50:57;93952.25;;;9.16;100.00
51829;BME280;37881;48.024;8.774;2023-05-28T02:53:29;93953.06;;;9.13;100.00
51829;BME280;37881;48.024;8.774;2023-05-28T02:55:55;93961.66;;;9.11;100.00
51829;BME280;37881;48.024;8.774;2023-05-28T02:58:22;93956.25;;;9.08;100.00
51829;BME280;37881;48.024;8.774;2023-05-28T03:00:50;93960.56;;;9.05;100.00
51829;BME280;37881;48.024;8.774;2023-05-28T03:03:17;93961.41;;;8.98;100.00
51829;BME280;37881;48.024;8.774;2023-05-28T03:05:44;93970.84;;;8.90;100.00
51829;BME280;37881;48.024;8.774;2023-05-28T03:08:11;93960.31;;;8.89;100.00
51829;BME280;37881;48.024;8.774;2023-05-28T03:10:37;93963.50;;;8.84;100.00
51829;BME280;37881;48.024;8.774;2023-05-28T03:13:04;93958.44;;;8.78;100.00
51829;BME280;37881;48.024;8.774;2023-05-28T03:15:31;93959.25;;;8.75;100.00
51829;BME280;37881;48.024;8.774;2023-05-28T03:17:58;93961.19;;;8.75;100.00
51829;BME280;37881;48.024;8.774;2023-05-28T03:20:24;93967.03;;;8.77;100.00
51829;BME280;37881;48.024;8.774;2023-05-28T03:22:56;93963.56;;;8.73;100.00
51829;BME280;37881;48.024;8.774;2023-05-28T03:25:26;93969.00;;;8.76;100.00
51829;BME280;37881;48.024;8.774;2023-05-28T03:27:53;93969.03;;;8.73;100.00
51829;BME280;37881;48.024;8.774;2023-05-28T03:30:20;93966.72;;;8.71;100.00
51829;BME280;37881;48.024;8.774;2023-05-28T03:32:50;93964.88;;;8.54;100.00
51829;BME280;37881;48.024;8.774;2023-05-28T03:35:18;93966.88;;;8.43;100.00
51829;BME280;37881;48.024;8.774;2023-05-28T03:37:45;93971.56;;;8.46;100.00
51829;BME280;37881;48.024;8.774;2023-05-28T03:40:12;93974.31;;;8.46;100.00
51829;BME280;37881;48.024;8.774;2023-05-28T03:42:39;93972.31;;;8.53;100.00
51829;BME280;37881;48.024;8.774;2023-05-28T03:45:07;93979.69;;;8.56;100.00
51829;BME280;37881;48.024;8.774;2023-05-28T03:47:34;93984.41;;;8.56;100.00
51829;BME280;37881;48.024;8.774;2023-05-28T03:50:02;93978.16;;;8.52;100.00
51829;BME280;37881;48.024;8.774;2023-05-28T03:52:31;93977.34;;;8.58;100.00
51829;BME280;37881;48.024;8.774;2023-05-28T03:54:58;93983.53;;;8.66;100.00
51829;BME280;37881;48.024;8.774;2023-05-28T03:57:24;93985.44;;;8.73;100.00
51829;BME280;37881;48.024;8.774;2023-05-28T03:59:51;93984.22;;;8.81;100.00
51829;BME280;37881;48.024;8.774;2023-05-28T04:02:19;93982.97;;;8.89;100.00
51829;BME280;37881;48.024;8.774;2023-05-28T04:04:45;93990.75;;;8.94;100.00
51829;BME280;37881;48.024;8.774;2023-05-28T04:07:13;93985.28;;;8.98;100.00
51829;BME280;37881;48.024;8.774;2023-05-28T04:09:40;93986.75;;;9.10;100.00
51829;BME280;37881;48.024;8.774;2023-05-28T04:12:07;93985.25;;;9.02;100.00
51829;BME280;37881;48.024;8.774;2023-05-28T04:14:35;93984.78;;;9.07;100.00
51829;BME280;37881;48.024;8.774;2023-05-28T04:17:02;93980.50;;;9.06;100.00
51829;BME280;37881;48.024;8.774;2023-05-28T04:19:29;93979.22;;;9.17;100.00
51829;BME280;37881;48.024;8.774;2023-05-28T04:21:56;93977.16;;;9.29;100.00
51829;BME280;37881;48.024;8.774;2023-05-28T04:24:23;93987.88;;;9.12;100.00
51829;BME280;37881;48.024;8.774;2023-05-28T04:26:50;93989.69;;;9.30;100.00
51829;BME280;37881;48.024;8.774;2023-05-28T04:29:18;93980.06;;;9.11;100.00
51829;BME280;37881;48.024;8.774;2023-05-28T04:31:44;93985.84;;;9.24;100.00
51829;BME280;37881;48.024;8.774;2023-05-28T04:34:14;93983.25;;;9.06;100.00
51829;BME280;37881;48.024;8.774;2023-05-28T04:36:43;93978.38;;;9.28;100.00
51829;BME280;37881;48.024;8.774;2023-05-28T04:39:10;93981.78;;;9.35;100.00
51829;BME280;37881;48.024;8.774;2023-05-28T04:41:37;93982.16;;;9.37;100.00
51829;BME280;37881;48.024;8.774;2023-05-28T04:44:04;93989.63;;;9.37;100.00
51829;BME280;37881;48.024;8.774;2023-05-28T04:46:30;93990.50;;;9.65;100.00
51829;BME280;37881;48.024;8.774;2023-05-28T04:48:57;93982.47;;;9.85;100.00
51829;BME280;37881;48.024;8.774;2023-05-28T04:51:24;93987.94;;;9.85;100.00
51829;BME280;37881;48.024;8.774;2023-05-28T04:53:51;93981.97;;;9.93;100.00
51829;BME280;37881;48.024;8.774;2023-05-28T04:56:18;93987.06;;;9.95;100.00
51829;BME280;37881;48.024;8.774;2023-05-28T04:58:45;93984.69;;;10.28;100.00
51829;BME280;37881;48.024;8.774;2023-05-28T05:01:13;93992.13;;;10.27;100.00
51829;BME280;37881;48.024;8.774;2023-05-28T05:03:41;93987.94;;;10.19;100.00
51829;BME280;37881;48.024;8.774;2023-05-28T05:06:08;93989.75;;;10.29;100.00
51829;BME280;37881;48.024;8.774;2023-05-28T05:08:35;93989.81;;;9.91;100.00
51829;BME280;37881;48.024;8.774;2023-05-28T05:11:02;93980.81;;;10.25;100.00
51829;BME280;37881;48.024;8.774;2023-05-28T05:13:31;93990.13;;;10.35;100.00
51829;BME280;37881;48.024;8.774;2023-05-28T05:15:58;93990.56;;;10.61;100.00
51829;BME280;37881;48.024;8.774;2023-05-28T05:18:24;93993.81;;;10.79;100.00
51829;BME280;37881;48.024;8.774;2023-05-28T05:20:51;93986.03;;;10.74;100.00
51829;BME280;37881;48.024;8.774;2023-05-28T05:23:18;93989.22;;;11.23;100.00
51829;BME280;37881;48.024;8.774;2023-05-28T05:25:45;93986.81;;;12.69;100.00
51829;BME280;37881;48.024;8.774;2023-05-28T05:28:12;93981.41;;;15.28;94.47
51829;BME280;37881;48.024;8.774;2023-05-28T05:30:38;93980.22;;;15.16;88.76
51829;BME280;37881;48.024;8.774;2023-05-28T05:33:05;93981.38;;;17.58;77.73
51829;BME280;37881;48.024;8.774;2023-05-28T05:35:32;93974.78;;;17.06;77.33
51829;BME280;37881;48.024;8.774;2023-05-28T05:37:58;93976.84;;;18.10;71.71
51829;BME280;37881;48.024;8.774;2023-05-28T05:40:25;93983.03;;;18.05;72.76
51829;BME280;37881;48.024;8.774;2023-05-28T05:42:52;93982.25;;;19.03;67.30
51829;BME280;37881;48.024;8.774;2023-05-28T05:45:19;93983.16;;;19.18;63.72
51829;BME280;37881;48.024;8.774;2023-05-28T05:47:47;93968.31;;;20.71;58.42
51829;BME280;37881;48.024;8.774;2023-05-28T05:50:13;93971.25;;;22.39;53.21
51829;BME280;37881;48.024;8.774;2023-05-28T05:52:40;93973.84;;;22.95;48.47
51829;BME280;37881;48.024;8.774;2023-05-28T05:55:07;93968.38;;;21.92;50.03
51829;BME280;37881;48.024;8.774;2023-05-28T05:57:34;93970.88;;;22.11;49.95
51829;BME280;37881;48.024;8.774;2023-05-28T06:00:04;93965.72;;;22.97;48.85
51829;BME280;37881;48.024;8.774;2023-05-28T06:02:32;93964.34;;;21.93;49.44
51829;BME280;37881;48.024;8.774;2023-05-28T06:04:59;93961.16;;;23.31;47.25
51829;BME280;37881;48.024;8.774;2023-05-28T06:07:26;93962.28;;;23.83;46.43
51829;BME280;37881;48.024;8.774;2023-05-28T06:09:52;93959.22;;;24.35;45.53
51829;BME280;37881;48.024;8.774;2023-05-28T06:12:19;93961.97;;;23.06;45.84
51829;BME280;37881;48.024;8.774;2023-05-28T06:14:46;93970.19;;;23.84;44.38
51829;BME280;37881;48.024;8.774;2023-05-28T06:17:13;93964.56;;;24.44;42.33
51829;BME280;37881;48.024;8.774;2023-05-28T06:19:40;93961.84;;;24.72;42.58
51829;BME280;37881;48.024;8.774;2023-05-28T06:22:07;93974.47;;;24.34;41.89
51829;BME280;37881;48.024;8.774;2023-05-28T06:24:39;93965.97;;;25.73;40.61
51829;BME280;37881;48.024;8.774;2023-05-28T06:27:06;93963.69;;;26.94;37.92
51829;BME280;37881;48.024;8.774;2023-05-28T06:29:32;93972.03;;;27.77;36.73
51829;BME280;37881;48.024;8.774;2023-05-28T06:31:59;93962.25;;;28.52;36.25
51829;BME280;37881;48.024;8.774;2023-05-28T06:34:26;93961.50;;;30.13;33.47
51829;BME280;37881;48.024;8.774;2023-05-28T06:36:53;93960.78;;;30.87;31.99
51829;BME280;37881;48.024;8.774;2023-05-28T06:39:19;93964.34;;;27.47;36.07
51829;BME280;37881;48.024;8.774;2023-05-28T06:41:46;93964.50;;;27.61;36.67
51829;BME280;37881;48.024;8.774;2023-05-28T06:44:13;93966.72;;;27.38;36.75
51829;BME280;37881;48.024;8.774;2023-05-28T06:46:39;93953.81;;;29.03;34.49
51829;BME280;37881;48.024;8.774;2023-05-28T06:49:06;93968.16;;;30.02;33.06
51829;BME280;37881;48.024;8.774;2023-05-28T06:51:33;93959.44;;;27.78;36.12
51829;BME280;37881;48.024;8.774;2023-05-28T06:54:00;93953.28;;;29.24;33.50
51829;BME280;37881;48.024;8.774;2023-05-28T06:56:26;93954.63;;;26.71;34.14
51829;BME280;37881;48.024;8.774;2023-05-28T06:58:53;93955.91;;;28.65;34.26
51829;BME280;37881;48.024;8.774;2023-05-28T07:01:21;93949.06;;;29.31;33.09
51829;BME280;37881;48.024;8.774;2023-05-28T07:03:47;93945.53;;;31.88;27.80
51829;BME280;37881;48.024;8.774;2023-05-28T07:06:14;93944.00;;;32.08;26.09
51829;BME280;37881;48.024;8.774;2023-05-28T07:08:41;93944.81;;;32.96;25.50
51829;BME280;37881;48.024;8.774;2023-05-28T07:11:11;93940.41;;;33.55;24.16
51829;BME280;37881;48.024;8.774;2023-05-28T07:13:39;93944.25;;;30.91;26.51
51829;BME280;37881;48.024;8.774;2023-05-28T07:16:06;93934.50;;;31.55;25.61
51829;BME280;37881;48.024;8.774;2023-05-28T07:18:33;93945.38;;;30.61;26.09
51829;BME280;37881;48.024;8.774;2023-05-28T07:21:00;93943.75;;;28.51;28.68
51829;BME280;37881;48.024;8.774;2023-05-28T07:23:28;93930.00;;;31.04;26.07
51829;BME280;37881;48.024;8.774;2023-05-28T07:25:55;93941.50;;;32.04;24.69
51829;BME280;37881;48.024;8.774;2023-05-28T07:28:22;93950.28;;;32.14;23.95
51829;BME280;37881;48.024;8.774;2023-05-28T07:30:49;93943.97;;;30.01;26.27
51829;BME280;37881;48.024;8.774;2023-05-28T07:33:16;93942.44;;;30.14;26.98
51829;BME280;37881;48.024;8.774;2023-05-28T07:35:42;93939.66;;;31.43;24.56
51829;BME280;37881;48.024;8.774;2023-05-28T07:38:10;93936.34;;;31.32;24.80
51829;BME280;37881;48.024;8.774;2023-05-28T07:40:39;93941.06;;;32.57;23.37
51829;BME280;37881;48.024;8.774;2023-05-28T07:43:06;93942.25;;;31.20;24.68
51829;BME280;37881;48.024;8.774;2023-05-28T07:45:33;93944.59;;;31.93;23.93
51829;BME280;37881;48.024;8.774;2023-05-28T07:48:00;93952.91;;;30.45;25.10
51829;BME280;37881;48.024;8.774;2023-05-28T07:50:27;93943.13;;;30.46;25.17
51829;BME280;37881;48.024;8.774;2023-05-28T07:52:54;93941.28;;;28.23;27.02
51829;BME280;37881;48.024;8.774;2023-05-28T07:55:22;93945.31;;;30.88;25.19
51829;BME280;37881;48.024;8.774;2023-05-28T07:57:48;93936.78;;;30.14;25.86
51829;BME280;37881;48.024;8.774;2023-05-28T08:00:16;93945.53;;;28.54;28.17
51829;BME280;37881;48.024;8.774;2023-05-28T08:02:43;93943.09;;;28.64;27.45
51829;BME280;37881;48.024;8.774;2023-05-28T08:05:13;93949.25;;;28.43;27.25
51829;BME280;37881;48.024;8.774;2023-05-28T08:07:40;93946.38;;;28.24;26.70
51829;BME280;37881;48.024;8.774;2023-05-28T08:10:07;93947.78;;;26.55;28.63
51829;BME280;37881;48.024;8.774;2023-05-28T08:12:34;93948.53;;;26.56;29.29
51829;BME280;37881;48.024;8.774;2023-05-28T08:15:01;93942.09;;;28.80;26.13
51829;BME280;37881;48.024;8.774;2023-05-28T08:17:30;93936.03;;;29.08;25.51
51829;BME280;37881;48.024;8.774;2023-05-28T08:20:00;93935.00;;;31.33;23.33
51829;BME280;37881;48.024;8.774;2023-05-28T08:22:28;93937.53;;;32.36;22.12
51829;BME280;37881;48.024;8.774;2023-05-28T08:24:55;93939.72;;;31.09;23.52
51829;BME280;37881;48.024;8.774;2023-05-28T08:27:22;93933.44;;;32.52;22.73
51829;BME280;37881;48.024;8.774;2023-05-28T08:29:48;93942.97;;;31.34;24.15
51829;BME280;37881;48.024;8.774;2023-05-28T08:32:15;93951.28;;;28.43;25.26
51829;BME280;37881;48.024;8.774;2023-05-28T08:34:42;93945.03;;;27.82;26.77
51829;BME280;37881;48.024;8.774;2023-05-28T08:37:09;93944.63;;;27.47;27.70
51829;BME280;37881;48.024;8.774;2023-05-28T08:39:36;93940.38;;;26.99;27.71
51829;BME280;37881;48.024;8.774;2023-05-28T08:42:03;93940.44;;;24.86;29.66
51829;BME280;37881;48.024;8.774;2023-05-28T08:44:30;93928.03;;;29.58;25.22
51829;BME280;37881;48.024;8.774;2023-05-28T08:46:59;93922.22;;;31.39;22.69
51829;BME280;37881;48.024;8.774;2023-05-28T08:49:30;93920.84;;;31.12;23.14
51829;BME280;37881;48.024;8.774;2023-05-28T08:52:02;93935.38;;;28.64;25.48
51829;BME280;37881;48.024;8.774;2023-05-28T08:54:29;93921.75;;;31.49;22.73
51829;BME280;37881;48.024;8.774;2023-05-28T08:56:57;93925.59;;;30.35;23.17
51829;BME280;37881;48.024;8.774;2023-05-28T08:59:25;93926.63;;;24.55;29.39
51829;BME280;37881;48.024;8.774;2023-05-28T09:01:55;93927.66;;;24.68;30.51
51829;BME280;37881;48.024;8.774;2023-05-28T09:04:22;93918.78;;;27.68;26.56
51829;BME280;37881;48.024;8.774;2023-05-28T09:06:49;93920.47;;;29.34;23.57
51829;BME280;37881;48.024;8.774;2023-05-28T09:09:18;93922.06;;;28.97;24.44
51829;BME280;37881;48.024;8.774;2023-05-28T09:11:45;93919.19;;;28.84;23.72
51829;BME280;37881;48.024;8.774;2023-05-28T09:14:13;93906.41;;;26.86;25.96
51829;BME280;37881;48.024;8.774;2023-05-28T09:16:41;93910.03;;;29.29;24.30
51829;BME280;37881;48.024;8.774;2023-05-28T09:19:09;93905.88;;;32.68;21.42
51829;BME280;37881;48.024;8.774;2023-05-28T09:21:36;93904.91;;;32.66;21.00
51829;BME280;37881;48.024;8.774;2023-05-28T09:24:04;93908.44;;;31.85;20.84
51829;BME280;37881;48.024;8.774;2023-05-28T09:26:32;93914.84;;;28.64;22.78
51829;BME280;37881;48.024;8.774;2023-05-28T09:29:00;93900.38;;;31.05;21.64
51829;BME280;37881;48.024;8.774;2023-05-28T09:31:28;93902.16;;;29.67;22.56
51829;BME280;37881;48.024;8.774;2023-05-28T09:33:55;93901.97;;;30.05;23.44
51829;BME280;37881;48.024;8.774;2023-05-28T09:36:23;93909.25;;;29.87;22.79
51829;BME280;37881;48.024;8.774;2023-05-28T09:38:50;93899.72;;;33.08;19.02
51829;BME280;37881;48.024;8.774;2023-05-28T09:41:18;93906.13;;;30.04;20.89
51829;BME280;37881;48.024;8.774;2023-05-28T09:43:58;93899.69;;;29.91;21.25
51829;BME280;37881;48.024;8.774;2023-05-28T09:46:29;93914.44;;;28.16;23.37
51829;BME280;37881;48.024;8.774;2023-05-28T09:48:56;93915.75;;;28.34;23.19
51829;BME280;37881;48.024;8.774;2023-05-28T09:51:25;93913.44;;;27.64;24.29
51829;BME280;37881;48.024;8.774;2023-05-28T09:53:56;93899.00;;;31.91;20.92
51829;BME280;37881;48.024;8.774;2023-05-28T09:56:28;93908.34;;;23.56;28.51
51829;BME280;37881;48.024;8.774;2023-05-28T09:59:02;93901.91;;;28.12;23.73
51829;BME280;37881;48.024;8.774;2023-05-28T10:01:45;93913.63;;;24.63;26.85
51829;BME280;37881;48.024;8.774;2023-05-28T10:04:17;93900.25;;;27.23;23.74
51829;BME280;37881;48.024;8.774;2023-05-28T10:06:47;93904.13;;;28.00;23.12
51829;BME280;37881;48.024;8.774;2023-05-28T10:09:15;93899.75;;;29.58;21.27
51829;BME280;37881;48.024;8.774;2023-05-28T10:11:49;93893.47;;;29.92;20.97
51829;BME280;37881;48.024;8.774;2023-05-28T10:14:22;93912.03;;;27.52;23.00
51829;BME280;37881;48.024;8.774;2023-05-28T10:16:50;93896.41;;;31.09;20.19
51829;BME280;37881;48.024;8.774;2023-05-28T10:19:18;93902.16;;;27.64;22.86
51829;BME280;37881;48.024;8.774;2023-05-28T10:21:44;93891.88;;;26.35;24.15
51829;BME280;37881;48.024;8.774;2023-05-28T10:24:12;93896.44;;;28.57;21.57
51829;BME280;37881;48.024;8.774;2023-05-28T10:26:39;93897.50;;;28.16;22.06
51829;BME280;37881;48.024;8.774;2023-05-28T10:29:06;93895.13;;;25.97;24.79
51829;BME280;37881;48.024;8.774;2023-05-28T10:31:36;93903.00;;;26.10;22.71
51829;BME280;37881;48.024;8.774;2023-05-28T10:34:14;93914.63;;;26.42;23.14
51829;BME280;37881;48.024;8.774;2023-05-28T10:36:49;93902.47;;;27.00;22.65
51829;BME280;37881;48.024;8.774;2023-05-28T10:39:17;93899.22;;;28.00;22.44
51829;BME280;37881;48.024;8.774;2023-05-28T10:41:44;93895.56;;;26.18;24.02
51829;BME280;37881;48.024;8.774;2023-05-28T10:44:10;93892.38;;;25.75;24.37
51829;BME280;37881;48.024;8.774;2023-05-28T10:46:39;93896.75;;;25.53;25.03
51829;BME280;37881;48.024;8.774;2023-05-28T10:51:56;93885.34;;;25.11;26.22
51829;BME280;37881;48.024;8.774;2023-05-28T10:54:38;93895.44;;;25.65;25.84
51829;BME280;37881;48.024;8.774;2023-05-28T11:04:59;93881.78;;;26.09;25.57
51829;BME280;37881;48.024;8.774;2023-05-28T11:07:33;93887.31;;;23.72;28.96
51829;BME280;37881;48.024;8.774;2023-05-28T11:10:02;93886.31;;;22.63;28.78
51829;BME280;37881;48.024;8.774;2023-05-28T11:12:31;93881.63;;;22.80;29.24
51829;BME280;37881;48.024;8.774;2023-05-28T11:14:58;93885.56;;;23.75;29.17
51829;BME280;37881;48.024;8.774;2023-05-28T11:17:24;93886.94;;;23.47;29.36
51829;BME280;37881;48.024;8.774;2023-05-28T11:19:51;93881.25;;;23.30;30.63
51829;BME280;37881;48.024;8.774;2023-05-28T11:22:20;93878.91;;;22.07;30.41
51829;BME280;37881;48.024;8.774;2023-05-28T11:27:17;93883.94;;;23.13;29.37
51829;BME280;37881;48.024;8.774;2023-05-28T11:29:44;93880.72;;;21.90;31.49
51829;BME280;37881;48.024;8.774;2023-05-28T11:32:11;93887.94;;;21.76;30.66
51829;BME280;37881;48.024;8.774;2023-05-28T11:34:38;93877.66;;;23.24;28.67
51829;BME280;37881;48.024;8.774;2023-05-28T11:37:04;93874.81;;;23.67;28.46
51829;BME280;37881;48.024;8.774;2023-05-28T11:39:32;93870.03;;;24.67;28.33
51829;BME280;37881;48.024;8.774;2023-05-28T11:41:58;93863.00;;;24.12;28.66
51829;BME280;37881;48.024;8.774;2023-05-28T11:44:25;93869.44;;;24.35;28.65
51829;BME280;37881;48.024;8.774;2023-05-28T11:46:55;93875.66;;;23.30;29.78
51829;BME280;37881;48.024;8.774;2023-05-28T11:49:23;93866.69;;;23.75;30.73
51829;BME280;37881;48.024;8.774;2023-05-28T11:51:53;93864.16;;;24.65;29.75
51829;BME280;37881;48.024;8.774;2023-05-28T11:54:21;93861.56;;;24.39;29.18
51829;BME280;37881;48.024;8.774;2023-05-28T11:56:48;93853.59;;;23.49;30.71
51829;BME280;37881;48.024;8.774;2023-05-28T11:59:16;93858.78;;;23.73;30.27
51829;BME280;37881;48.024;8.774;2023-05-28T12:01:44;93856.69;;;24.23;30.70
51829;BME280;37881;48.024;8.774;2023-05-28T12:04:11;93856.34;;;23.92;30.59
51829;BME280;37881;48.024;8.774;2023-05-28T12:06:51;93862.84;;;23.18;30.26
51829;BME280;37881;48.024;8.774;2023-05-28T12:09:19;93853.81;;;23.40;30.02
51829;BME280;37881;48.024;8.774;2023-05-28T12:12:21;93852.31;;;24.10;28.56
51829;BME280;37881;48.024;8.774;2023-05-28T12:15:00;93855.59;;;23.98;28.58
51829;BME280;37881;48.024;8.774;2023-05-28T12:17:33;93864.44;;;23.79;29.07
51829;BME280;37881;48.024;8.774;2023-05-28T12:23:07;93854.34;;;23.50;28.97
51829;BME280;37881;48.024;8.774;2023-05-28T12:25:54;93855.44;;;23.64;29.29
51829;BME280;37881;48.024;8.774;2023-05-28T12:28:22;93868.84;;;23.05;30.60
51829;BME280;37881;48.024;8.774;2023-05-28T12:30:51;93861.88;;;22.95;30.31
51829;BME280;37881;48.024;8.774;2023-05-28T12:33:21;93861.69;;;22.67;29.79
51829;BME280;37881;48.024;8.774;2023-05-28T12:35:48;93851.56;;;24.16;27.72
51829;BME280;37881;48.024;8.774;2023-05-28T12:38:15;93855.88;;;23.51;27.74
51829;BME280;37881;48.024;8.774;2023-05-28T12:40:42;93845.56;;;22.04;29.94
51829;BME280;37881;48.024;8.774;2023-05-28T12:43:08;93841.81;;;23.94;27.88
51829;BME280;37881;48.024;8.774;2023-05-28T12:45:35;93836.84;;;24.88;27.06
51829;BME280;37881;48.024;8.774;2023-05-28T12:48:03;93831.47;;;24.96;27.37
51829;BME280;37881;48.024;8.774;2023-05-28T12:50:30;93825.06;;;24.11;28.87
51829;BME280;37881;48.024;8.774;2023-05-28T12:52:57;93829.66;;;24.42;28.21
51829;BME280;37881;48.024;8.774;2023-05-28T12:55:24;93826.66;;;23.63;28.92
51829;BME280;37881;48.024;8.774;2023-05-28T12:57:51;93821.72;;;24.01;28.41
51829;BME280;37881;48.024;8.774;2023-05-28T13:00:18;93821.06;;;23.63;28.71
51829;BME280;37881;48.024;8.774;2023-05-28T13:02:44;93821.16;;;23.86;28.34
51829;BME280;37881;48.024;8.774;2023-05-28T13:05:11;93814.41;;;24.71;27.63
51829;BME280;37881;48.024;8.774;2023-05-28T13:07:38;93814.13;;;24.86;27.59
51829;BME280;37881;48.024;8.774;2023-05-28T13:10:05;93804.38;;;25.27;26.64
51829;BME280;37881;48.024;8.774;2023-05-28T13:12:35;93806.69;;;25.23;26.33
51829;BME280;37881;48.024;8.774;2023-05-28T13:15:06;93807.44;;;25.29;25.96
51829;BME280;37881;48.024;8.774;2023-05-28T13:17:34;93808.22;;;25.07;25.95